Time;durP1;ratioP1;P1;durP2;ratioP2;P2;SDS_P1;SDS_P2;PMS_P1;PMS_P2;Temp;Humidity;BMP_temperature;BMP_pressure;BME280_temperature;BME280_humidity;BME280_pressure;Samples;Min_cycle;Max_cycle;Signal;HPM_P1;HPM_P2
2022/04/23 00:01:42;;;;;;;0.40;0.20;;;11.70;99.90;;;;;;5012863;28;20687;-69
2022/04/23 00:04:09;;;;;;;0.60;0.60;;;11.60;99.90;;;;;;5013515;28;20420;-69
2022/04/23 00:06:35;;;;;;;0.40;0.20;;;11.50;99.90;;;;;;5012747;28;20399;-69
2022/04/23 00:09:00;;;;;;;0.40;0.20;;;11.50;99.90;;;;;;5013401;28;20401;-69
2022/04/23 00:11:26;;;;;;;0.40;0.30;;;11.50;99.90;;;;;;5012421;28;20393;-72
2022/04/23 00:13:52;;;;;;;0.50;0.50;;;11.60;99.90;;;;;;5013049;28;20913;-69
2022/04/23 00:16:17;;;;;;;2.10;0.70;;;11.50;99.90;;;;;;5012489;28;20392;-69
2022/04/23 00:18:44;;;;;;;1.58;1.13;;;11.50;99.90;;;;;;5012472;28;20480;-69
2022/04/23 00:21:10;;;;;;;2.60;0.80;;;11.70;99.90;;;;;;5013490;28;20807;-69
2022/04/23 00:23:36;;;;;;;0.40;0.30;;;11.60;99.90;;;;;;5012329;28;20463;-71
2022/04/23 00:26:02;;;;;;;0.40;0.20;;;11.70;99.90;;;;;;5013011;28;20421;-68
2022/04/23 00:28:28;;;;;;;0.50;0.40;;;11.70;99.90;;;;;;5012928;28;20388;-68
2022/04/23 00:30:53;;;;;;;0.40;0.20;;;11.70;99.90;;;;;;5013298;28;20377;-68
2022/04/23 00:33:20;;;;;;;0.40;0.20;;;11.70;99.90;;;;;;5032867;28;20415;-68
2022/04/23 00:35:45;;;;;;;0.50;0.50;;;11.80;99.90;;;;;;5032048;28;20379;-71
2022/04/23 00:38:11;;;;;;;0.40;0.30;;;11.80;99.90;;;;;;5032775;28;20439;-68
2022/04/23 00:40:40;;;;;;;0.40;0.20;;;11.80;99.90;;;;;;5027589;28;20428;-68
2022/04/23 00:43:10;;;;;;;2.40;0.98;;;11.70;99.90;;;;;;5012488;28;20420;-68
2022/04/23 00:45:36;;;;;;;0.40;0.38;;;11.70;99.90;;;;;;5012784;28;20401;-68
2022/04/23 00:48:02;;;;;;;0.40;0.30;;;11.70;99.90;;;;;;5012077;28;20826;-68
2022/04/23 00:50:28;;;;;;;0.40;0.20;;;11.70;99.90;;;;;;5011183;28;20923;-68
2022/04/23 00:53:03;;;;;;;1.60;0.70;;;11.70;99.90;;;;;;5011463;28;20397;-70
2022/04/23 00:55:36;;;;;;;0.40;0.20;;;11.60;99.90;;;;;;5011475;28;20859;-68
2022/04/23 00:58:03;;;;;;;0.40;0.20;;;11.60;99.90;;;;;;5011728;28;20764;-71
2022/04/23 01:00:29;;;;;;;0.40;0.30;;;11.50;99.90;;;;;;5012374;28;20881;-68
2022/04/23 01:03:12;;;;;;;0.40;0.20;;;11.60;99.90;;;;;;5011337;28;20393;-68
2022/04/23 01:05:44;;;;;;;0.50;0.40;;;11.60;99.90;;;;;;5012489;28;20400;-68
2022/04/23 01:08:17;;;;;;;0.40;0.20;;;11.60;99.90;;;;;;5025634;28;20920;-69
2022/04/23 01:10:48;;;;;;;0.90;0.90;;;11.60;99.90;;;;;;5012467;28;20463;-68
2022/04/23 01:13:14;;;;;;;0.40;0.30;;;11.60;99.90;;;;;;5011414;28;20773;-70
2022/04/23 01:15:54;;;;;;;0.40;0.40;;;11.60;99.90;;;;;;5012029;28;20427;-68
2022/04/23 01:18:23;;;;;;;0.40;0.20;;;11.70;99.90;;;;;;5011640;28;20384;-69
2022/04/23 01:20:49;;;;;;;0.40;0.20;;;11.60;99.90;;;;;;5012167;28;20464;-69
2022/04/23 01:23:14;;;;;;;0.40;0.20;;;11.60;99.90;;;;;;5012225;28;20951;-69
2022/04/23 01:25:40;;;;;;;1.70;0.93;;;11.60;99.90;;;;;;5011130;28;20751;-69
2022/04/23 01:28:08;;;;;;;0.40;0.35;;;11.60;99.90;;;;;;5011819;28;20677;-69
2022/04/23 01:30:34;;;;;;;0.80;0.60;;;11.70;99.90;;;;;;5010754;28;20401;-69
2022/04/23 01:32:59;;;;;;;0.40;0.20;;;11.80;99.90;;;;;;5012098;28;20910;-69
2022/04/23 01:35:25;;;;;;;1.80;1.20;;;11.80;99.90;;;;;;5010569;28;20876;-71
2022/04/23 01:37:51;;;;;;;0.70;0.70;;;11.80;99.90;;;;;;5011002;28;20408;-69
2022/04/23 01:40:17;;;;;;;0.90;0.90;;;11.80;99.90;;;;;;5011722;28;20432;-68
2022/04/23 01:42:43;;;;;;;0.40;0.30;;;11.80;99.90;;;;;;5010910;28;20470;-69
2022/04/23 01:45:09;;;;;;;0.90;0.80;;;11.80;99.90;;;;;;5011213;28;20417;-69
2022/04/23 01:47:35;;;;;;;0.40;0.20;;;11.80;99.90;;;;;;5026776;28;20400;-71
2022/04/23 01:50:00;;;;;;;0.43;0.43;;;11.80;99.90;;;;;;5011068;28;20381;-68
2022/04/23 01:52:26;;;;;;;0.40;0.20;;;11.80;99.90;;;;;;5011779;28;20388;-68
2022/04/23 01:54:52;;;;;;;0.40;0.33;;;11.70;99.90;;;;;;5010888;28;20389;-68
2022/04/23 01:57:17;;;;;;;0.40;0.20;;;11.80;99.90;;;;;;5011324;28;20862;-68
2022/04/23 01:59:43;;;;;;;0.40;0.30;;;11.70;99.90;;;;;;5011776;28;20838;-69
2022/04/23 02:02:09;;;;;;;0.40;0.30;;;11.70;99.90;;;;;;5010558;28;20492;-69
2022/04/23 02:04:34;;;;;;;0.57;0.45;;;11.60;99.90;;;;;;5011268;28;20468;-69
2022/04/23 02:07:00;;;;;;;0.57;0.57;;;11.60;99.90;;;;;;5010788;28;20404;-69
2022/04/23 02:09:25;;;;;;;0.40;0.30;;;11.60;99.90;;;;;;5011679;28;20393;-69
2022/04/23 02:11:51;;;;;;;0.40;0.20;;;11.50;99.90;;;;;;5011526;28;20381;-69
2022/04/23 02:14:17;;;;;;;0.40;0.20;;;11.50;99.90;;;;;;5010549;28;20396;-69
2022/04/23 02:16:43;;;;;;;1.40;1.00;;;11.50;99.90;;;;;;5011116;28;20746;-69
2022/04/23 02:19:09;;;;;;;0.40;0.30;;;11.40;99.90;;;;;;5010779;28;20392;-69
2022/04/23 02:21:34;;;;;;;0.40;0.30;;;11.40;99.90;;;;;;5010989;28;20865;-69
2022/04/23 02:24:04;;;;;;;0.40;0.20;;;11.30;99.90;;;;;;5011410;28;20423;-69
2022/04/23 02:26:30;;;;;;;0.40;0.20;;;11.30;99.90;;;;;;5010290;28;21059;-69
2022/04/23 02:28:55;;;;;;;0.80;0.80;;;11.20;99.90;;;;;;5011104;28;20420;-69
2022/04/23 02:31:21;;;;;;;0.50;0.50;;;11.30;99.90;;;;;;5015154;28;20387;-69
2022/04/23 02:33:47;;;;;;;0.40;0.30;;;11.30;99.90;;;;;;5034344;28;20492;-69
2022/04/23 02:36:15;;;;;;;0.40;0.20;;;11.30;99.90;;;;;;5011062;28;20471;-69
2022/04/23 02:38:41;;;;;;;0.40;0.30;;;11.30;99.90;;;;;;5009528;28;20396;-69
2022/04/23 02:41:10;;;;;;;2.50;1.30;;;11.30;99.90;;;;;;5011212;28;20396;-69
2022/04/23 02:43:38;;;;;;;0.40;0.20;;;11.30;99.90;;;;;;5009710;28;20417;-69
2022/04/23 02:46:05;;;;;;;1.60;0.70;;;11.30;99.90;;;;;;5010968;28;20936;-69
2022/04/23 02:48:30;;;;;;;0.40;0.20;;;11.30;99.90;;;;;;5010099;28;20389;-70
2022/04/23 02:50:56;;;;;;;0.50;0.40;;;11.30;99.90;;;;;;5010869;28;20447;-69
2022/04/23 02:53:22;;;;;;;2.00;0.93;;;11.40;99.90;;;;;;5010873;28;20384;-69
2022/04/23 02:55:47;;;;;;;0.50;0.50;;;11.40;99.90;;;;;;5010018;28;20694;-69
2022/04/23 02:58:13;;;;;;;0.40;0.20;;;11.30;99.90;;;;;;5010567;28;20395;-69
2022/04/23 03:00:41;;;;;;;0.40;0.20;;;11.30;99.90;;;;;;5005472;28;20469;-71
2022/04/23 03:03:11;;;;;;;0.40;0.20;;;11.30;99.90;;;;;;4991243;28;20395;-69
2022/04/23 03:05:42;;;;;;;0.40;0.20;;;11.30;99.90;;;;;;4990969;28;20489;-69
2022/04/23 03:08:08;;;;;;;0.40;0.30;;;11.40;99.90;;;;;;4990966;28;20399;-69
2022/04/23 03:10:33;;;;;;;0.40;0.20;;;11.40;99.90;;;;;;4999694;28;20922;-69
2022/04/23 03:12:59;;;;;;;0.40;0.30;;;11.30;99.90;;;;;;4996820;28;20411;-69
2022/04/23 03:15:26;;;;;;;0.40;0.20;;;11.20;99.90;;;;;;4982150;28;20400;-69
2022/04/23 03:18:09;;;;;;;0.40;0.20;;;11.20;99.90;;;;;;4999031;28;20490;-71
2022/04/23 03:20:39;;;;;;;0.80;0.70;;;11.20;99.90;;;;;;5001942;28;20947;-69
2022/04/23 03:23:05;;;;;;;0.80;0.50;;;11.20;99.90;;;;;;4993428;28;20494;-69
2022/04/23 03:25:32;;;;;;;0.40;0.20;;;11.10;99.90;;;;;;5001657;28;20502;-69
2022/04/23 03:27:59;;;;;;;0.40;0.20;;;11.10;99.90;;;;;;5003054;28;20468;-69
2022/04/23 03:30:25;;;;;;;0.60;0.60;;;11.20;99.90;;;;;;5003771;28;20395;-69
2022/04/23 03:32:50;;;;;;;0.90;0.90;;;11.10;99.90;;;;;;5003651;28;20389;-69
2022/04/23 03:35:16;;;;;;;0.60;0.60;;;11.10;99.90;;;;;;5007361;28;20420;-69
2022/04/23 03:37:42;;;;;;;0.93;0.83;;;11.10;99.90;;;;;;4995449;28;20434;-69
2022/04/23 03:40:09;;;;;;;0.60;0.60;;;11.00;99.90;;;;;;5001686;28;20420;-69
2022/04/23 03:42:35;;;;;;;0.60;0.60;;;11.10;99.90;;;;;;5011765;28;20402;-69
2022/04/23 03:45:02;;;;;;;0.40;0.38;;;11.10;99.90;;;;;;4998256;28;20491;-69
2022/04/23 03:47:28;;;;;;;0.50;0.50;;;11.10;99.90;;;;;;4998661;28;20433;-69
2022/04/23 03:49:54;;;;;;;0.40;0.20;;;11.00;99.90;;;;;;4999623;28;20871;-69
2022/04/23 03:52:19;;;;;;;0.40;0.20;;;10.90;99.90;;;;;;5012806;28;20521;-69
2022/04/23 03:54:46;;;;;;;0.40;0.20;;;10.90;99.90;;;;;;5007148;28;20433;-69
2022/04/23 03:57:12;;;;;;;0.40;0.30;;;10.90;99.90;;;;;;5003589;28;20396;-69
2022/04/23 03:59:38;;;;;;;0.40;0.20;;;10.80;99.90;;;;;;5000939;28;20751;-69
2022/04/23 04:02:05;;;;;;;0.40;0.30;;;10.70;99.90;;;;;;5000840;28;20398;-69
2022/04/23 04:04:32;;;;;;;0.40;0.20;;;10.70;99.90;;;;;;5003066;28;20438;-69
2022/04/23 04:06:59;;;;;;;0.40;0.40;;;10.60;99.90;;;;;;5008849;28;20498;-69
2022/04/23 04:09:26;;;;;;;1.00;0.90;;;10.60;99.90;;;;;;5007049;28;20420;-69
2022/04/23 04:12:01;;;;;;;0.40;0.40;;;10.50;99.90;;;;;;5006422;28;20403;-69
2022/04/23 04:14:28;;;;;;;0.40;0.20;;;10.60;99.90;;;;;;4997363;28;20759;-69
2022/04/23 04:16:54;;;;;;;0.40;0.20;;;10.50;99.90;;;;;;5018869;28;20904;-69
2022/04/23 04:19:21;;;;;;;1.30;0.90;;;10.50;99.90;;;;;;5006698;28;20871;-69
2022/04/23 04:21:47;;;;;;;0.70;0.70;;;10.40;99.90;;;;;;5008668;28;20393;-71
2022/04/23 04:24:14;;;;;;;0.40;0.30;;;10.40;99.90;;;;;;5003655;28;20427;-69
2022/04/23 04:26:45;;;;;;;0.80;0.60;;;10.40;99.90;;;;;;4997898;28;20881;-69
2022/04/23 04:29:11;;;;;;;0.60;0.60;;;10.60;99.90;;;;;;5007395;28;20402;-69
2022/04/23 04:31:49;;;;;;;0.40;0.30;;;10.60;99.90;;;;;;5007500;28;20874;-69
2022/04/23 04:34:21;;;;;;;0.70;0.70;;;10.60;99.90;;;;;;5006073;28;20402;-69
2022/04/23 04:36:48;;;;;;;0.40;0.20;;;10.70;99.90;;;;;;5004735;28;20502;-69
2022/04/23 04:39:15;;;;;;;0.80;0.80;;;10.70;99.90;;;;;;5006080;28;20475;-69
2022/04/23 04:41:41;;;;;;;0.40;0.30;;;10.70;99.90;;;;;;5009759;28;20401;-69
2022/04/23 04:44:08;;;;;;;0.40;0.20;;;10.70;99.90;;;;;;5008226;28;20508;-69
2022/04/23 04:46:35;;;;;;;0.40;0.40;;;10.80;99.90;;;;;;5002339;28;20395;-69
2022/04/23 04:49:02;;;;;;;0.40;0.40;;;10.80;99.90;;;;;;4998638;28;20411;-69
2022/04/23 04:51:28;;;;;;;0.40;0.30;;;10.80;99.90;;;;;;5002560;28;20402;-69
2022/04/23 04:53:55;;;;;;;0.70;0.70;;;10.80;99.90;;;;;;4993586;28;20512;-69
2022/04/23 04:56:21;;;;;;;0.40;0.20;;;10.80;99.90;;;;;;5003419;28;20746;-72
2022/04/23 04:58:48;;;;;;;0.40;0.30;;;10.90;99.90;;;;;;5004309;28;20404;-69
2022/04/23 05:01:14;;;;;;;0.40;0.20;;;10.90;99.90;;;;;;5011940;28;20401;-69
2022/04/23 05:03:40;;;;;;;0.40;0.20;;;10.90;99.90;;;;;;5011020;28;20412;-70
2022/04/23 05:06:09;;;;;;;0.50;0.50;;;10.80;99.90;;;;;;5012596;28;20420;-69
2022/04/23 05:08:35;;;;;;;0.40;0.40;;;10.80;99.90;;;;;;5011870;28;20392;-70
2022/04/23 05:11:02;;;;;;;0.60;0.50;;;10.70;99.90;;;;;;5027990;28;20532;-70
2022/04/23 05:13:28;;;;;;;0.73;0.73;;;10.60;99.90;;;;;;5027870;28;20408;-70
2022/04/23 05:15:54;;;;;;;0.40;0.20;;;10.70;99.90;;;;;;5012042;28;20385;-70
2022/04/23 05:18:20;;;;;;;0.40;0.20;;;10.80;99.90;;;;;;5012595;28;20460;-70
2022/04/23 05:20:45;;;;;;;0.40;0.20;;;11.00;99.90;;;;;;5010990;28;20543;-70
2022/04/23 05:23:11;;;;;;;0.60;0.60;;;11.10;99.90;;;;;;5012495;28;20842;-70
2022/04/23 05:25:36;;;;;;;0.60;0.40;;;10.90;99.90;;;;;;5012108;28;20852;-70
2022/04/23 05:28:02;;;;;;;0.40;0.30;;;10.90;99.90;;;;;;5011300;28;20491;-70
2022/04/23 05:30:28;;;;;;;0.90;0.90;;;11.00;99.90;;;;;;5011827;28;20401;-70
2022/04/23 05:32:54;;;;;;;1.00;0.90;;;11.10;99.90;;;;;;5029263;28;20777;-72
2022/04/23 05:35:20;;;;;;;0.75;0.75;;;10.90;99.90;;;;;;5017615;28;20396;-70
2022/04/23 05:37:45;;;;;;;0.40;0.32;;;11.00;99.90;;;;;;5012417;28;20797;-70
2022/04/23 05:40:12;;;;;;;0.60;0.60;;;10.90;99.90;;;;;;5019142;28;20416;-70
2022/04/23 05:42:38;;;;;;;0.60;0.60;;;10.90;99.90;;;;;;4997641;28;20475;-70
2022/04/23 05:45:04;;;;;;;0.40;0.20;;;10.80;99.90;;;;;;5011473;28;20542;-75
2022/04/23 05:47:29;;;;;;;0.40;0.40;;;10.70;99.90;;;;;;5011838;28;20858;-71
2022/04/23 05:49:55;;;;;;;0.90;0.60;;;10.60;99.90;;;;;;5011961;28;20435;-69
2022/04/23 05:52:21;;;;;;;1.57;1.47;;;10.70;99.90;;;;;;5010983;28;20377;-69
2022/04/23 05:54:46;;;;;;;0.80;0.80;;;10.70;99.90;;;;;;5012063;28;20412;-70
2022/04/23 05:57:12;;;;;;;1.47;1.37;;;10.70;99.90;;;;;;5012044;28;20464;-72
2022/04/23 05:59:38;;;;;;;0.40;0.40;;;10.70;99.90;;;;;;5011398;28;20965;-69
2022/04/23 06:02:03;;;;;;;1.00;0.70;;;10.70;99.90;;;;;;5011421;28;20885;-70
2022/04/23 06:04:30;;;;;;;0.80;0.80;;;10.70;99.90;;;;;;5010612;28;20438;-71
2022/04/23 06:06:58;;;;;;;0.40;0.30;;;10.60;99.90;;;;;;5001789;28;20450;-70
2022/04/23 06:09:24;;;;;;;0.40;0.20;;;10.60;99.90;;;;;;4998203;28;20489;-71
2022/04/23 06:11:50;;;;;;;0.40;0.20;;;10.60;99.90;;;;;;5019466;28;20530;-70
2022/04/23 06:14:15;;;;;;;0.40;0.20;;;10.70;99.90;;;;;;5023209;28;20396;-69
2022/04/23 06:16:41;;;;;;;0.50;0.50;;;10.70;99.90;;;;;;5004324;28;20453;-70
2022/04/23 06:19:06;;;;;;;0.63;0.63;;;10.80;99.90;;;;;;4999291;28;20476;-70
2022/04/23 06:21:32;;;;;;;0.40;0.30;;;10.80;99.90;;;;;;5002831;28;20407;-70
2022/04/23 06:23:58;;;;;;;0.60;0.60;;;10.80;99.90;;;;;;5001394;28;20436;-68
2022/04/23 06:26:24;;;;;;;0.40;0.20;;;10.70;99.90;;;;;;5011257;28;20449;-70
2022/04/23 06:28:50;;;;;;;0.70;0.70;;;10.90;99.90;;;;;;5010233;28;20397;-70
2022/04/23 06:31:16;;;;;;;0.63;0.60;;;10.80;99.90;;;;;;5008473;28;20418;-70
2022/04/23 06:33:44;;;;;;;0.40;0.30;;;10.90;99.90;;;;;;5000693;28;20413;-70
2022/04/23 06:36:10;;;;;;;1.75;0.95;;;11.00;99.90;;;;;;5004654;28;20932;-70
2022/04/23 06:38:36;;;;;;;0.70;0.60;;;11.00;99.90;;;;;;5001806;28;20382;-70
2022/04/23 06:41:03;;;;;;;0.80;0.80;;;10.90;99.90;;;;;;4999966;28;20887;-70
2022/04/23 06:43:28;;;;;;;0.50;0.50;;;10.80;99.90;;;;;;5007547;28;20426;-70
2022/04/23 06:45:54;;;;;;;0.70;0.70;;;10.90;99.90;;;;;;4996980;28;20424;-72
2022/04/23 06:48:20;;;;;;;0.40;0.20;;;11.00;99.90;;;;;;5005289;28;20448;-70
2022/04/23 06:50:45;;;;;;;0.40;0.30;;;11.10;99.90;;;;;;4996190;28;20452;-70
2022/04/23 06:53:11;;;;;;;0.40;0.20;;;11.10;99.90;;;;;;5003293;28;20392;-70
2022/04/23 06:55:37;;;;;;;0.77;0.77;;;11.30;99.90;;;;;;5000980;28;20427;-70
2022/04/23 06:58:03;;;;;;;0.40;0.30;;;11.20;99.90;;;;;;5006636;28;20397;-71
2022/04/23 07:00:28;;;;;;;0.70;0.70;;;11.40;99.90;;;;;;4999845;28;20470;-70
2022/04/23 07:02:54;;;;;;;1.10;1.00;;;11.60;99.90;;;;;;5010403;28;20395;-67
2022/04/23 07:05:20;;;;;;;0.40;0.40;;;11.80;99.90;;;;;;5000102;28;20941;-70
2022/04/23 07:08:02;;;;;;;0.57;0.55;;;11.70;99.90;;;;;;4995988;28;20468;-69
2022/04/23 07:10:30;;;;;;;0.43;0.38;;;11.60;99.90;;;;;;5001726;28;20917;-70
2022/04/23 07:12:56;;;;;;;0.50;0.50;;;11.70;99.90;;;;;;5005744;28;20402;-69
2022/04/23 07:15:23;;;;;;;0.40;0.20;;;11.70;99.90;;;;;;5004454;28;20987;-69
2022/04/23 07:17:50;;;;;;;1.20;0.60;;;12.00;99.90;;;;;;5005672;28;20471;-70
2022/04/23 07:20:17;;;;;;;0.60;0.60;;;12.10;99.90;;;;;;5006629;28;20389;-70
2022/04/23 07:25:28;;;;;;;0.60;0.60;;;12.10;99.90;;;;;;4996348;28;20428;-70
2022/04/23 07:27:54;;;;;;;0.40;0.30;;;12.20;99.90;;;;;;5010572;28;20400;-70
2022/04/23 07:30:19;;;;;;;1.50;1.40;;;12.40;99.90;;;;;;5014219;28;20403;-70
2022/04/23 07:32:45;;;;;;;0.50;0.50;;;12.60;99.90;;;;;;5013359;28;20396;-69
2022/04/23 07:37:55;;;;;;;0.40;0.20;;;12.90;99.90;;;;;;5011808;28;20415;-70
2022/04/23 07:40:21;;;;;;;0.80;0.70;;;13.00;99.90;;;;;;5003679;28;21003;-71
2022/04/23 07:42:46;;;;;;;0.40;0.30;;;12.90;99.90;;;;;;5003774;28;20499;-73
2022/04/23 07:45:12;;;;;;;0.60;0.60;;;13.00;99.90;;;;;;5007718;28;20427;-71
2022/04/23 07:47:38;;;;;;;0.80;0.80;;;13.10;99.90;;;;;;5008631;28;20396;-72
2022/04/23 07:50:04;;;;;;;0.40;0.20;;;12.90;99.90;;;;;;5013412;28;20393;-71
2022/04/23 07:52:31;;;;;;;0.40;0.20;;;13.10;99.90;;;;;;5014361;28;20497;-71
2022/04/23 07:54:57;;;;;;;0.40;0.30;;;13.00;99.90;;;;;;5012934;28;20397;-69
2022/04/23 07:57:23;;;;;;;0.40;0.28;;;13.10;99.90;;;;;;5014323;28;20388;-69
2022/04/23 07:59:49;;;;;;;0.43;0.22;;;13.00;99.90;;;;;;5010961;28;20406;-70
2022/04/23 08:02:15;;;;;;;0.40;0.30;;;13.00;99.90;;;;;;5005219;28;20824;-72
2022/04/23 08:04:42;;;;;;;0.47;0.47;;;12.90;99.90;;;;;;5012529;28;20499;-70
2022/04/23 08:07:07;;;;;;;0.80;0.80;;;12.90;99.90;;;;;;5009958;28;20593;-69
2022/04/23 08:09:37;;;;;;;0.40;0.30;;;13.00;99.90;;;;;;5005458;28;20397;-70
2022/04/23 08:12:06;;;;;;;0.40;0.40;;;13.00;99.90;;;;;;5020151;28;20860;-70
2022/04/23 08:14:32;;;;;;;0.40;0.30;;;12.90;99.90;;;;;;5018835;28;20906;-70
2022/04/23 08:16:59;;;;;;;0.40;0.40;;;12.90;99.90;;;;;;5013794;28;20399;-71
2022/04/23 08:19:25;;;;;;;0.70;0.70;;;12.60;99.90;;;;;;5012703;28;20825;-70
2022/04/23 08:21:51;;;;;;;0.40;0.20;;;12.80;99.90;;;;;;5028273;28;20470;-70
2022/04/23 08:24:19;;;;;;;0.50;0.50;;;12.80;99.90;;;;;;5012051;28;20421;-70
2022/04/23 08:26:45;;;;;;;0.75;0.55;;;12.70;99.90;;;;;;5013498;28;20464;-70
2022/04/23 08:31:54;;;;;;;0.60;0.60;;;12.60;99.90;;;;;;5015401;28;20447;-70
2022/04/23 08:34:20;;;;;;;0.40;0.40;;;12.50;99.90;;;;;;5011069;28;20777;-70
2022/04/23 08:36:47;;;;;;;0.40;0.30;;;12.60;99.90;;;;;;5012015;28;20467;-70
2022/04/23 08:39:13;;;;;;;0.40;0.30;;;12.60;99.90;;;;;;5011871;28;20415;-70
2022/04/23 08:41:40;;;;;;;0.50;0.50;;;12.60;99.90;;;;;;5012918;28;20388;-70
2022/04/23 08:44:06;;;;;;;1.60;1.50;;;12.80;99.90;;;;;;5012352;28;20778;-70
2022/04/23 08:46:37;;;;;;;0.40;0.30;;;12.80;99.90;;;;;;5011850;28;20404;-70
2022/04/23 08:49:16;;;;;;;0.40;0.40;;;12.90;99.90;;;;;;5012832;28;20389;-70
2022/04/23 08:51:46;;;;;;;0.40;0.20;;;13.00;99.90;;;;;;5000799;28;20878;-69
2022/04/23 08:54:15;;;;;;;0.40;0.40;;;13.10;99.90;;;;;;5011624;28;20491;-69
2022/04/23 08:56:44;;;;;;;1.42;1.35;;;13.20;99.90;;;;;;5008460;28;20412;-70
2022/04/23 08:59:13;;;;;;;0.40;0.40;;;13.30;99.90;;;;;;5007544;28;20966;-70
2022/04/23 09:01:39;;;;;;;0.40;0.30;;;13.40;99.90;;;;;;5011110;28;20397;-70
2022/04/23 09:04:08;;;;;;;0.60;0.60;;;13.30;99.90;;;;;;5012453;28;20507;-70
2022/04/23 09:06:44;;;;;;;0.40;0.40;;;13.50;99.90;;;;;;5009800;28;20766;-70
2022/04/23 09:09:13;;;;;;;0.40;0.30;;;13.80;99.90;;;;;;5012000;28;20389;-69
2022/04/23 09:11:44;;;;;;;0.40;0.30;;;14.00;99.90;;;;;;5011609;28;20444;-70
2022/04/23 09:14:29;;;;;;;2.10;1.30;;;13.90;99.90;;;;;;5011949;28;20404;-71
2022/04/23 09:25:17;;;;;;;0.90;0.70;;;14.40;99.90;;;;;;5011791;28;20436;-70
2022/04/23 09:27:43;;;;;;;0.40;0.40;;;14.10;99.90;;;;;;4994934;28;20703;-71
2022/04/23 09:30:13;;;;;;;0.40;0.20;;;14.00;99.90;;;;;;5005129;28;20382;-70
2022/04/23 09:33:00;;;;;;;0.40;0.30;;;14.00;99.90;;;;;;5002628;28;20889;-72
2022/04/23 09:35:26;;;;;;;0.50;0.50;;;14.20;99.90;;;;;;5010370;28;20397;-70
2022/04/23 09:40:36;;;;;;;0.40;0.30;;;14.00;99.90;;;;;;5010926;28;20443;-71
2022/04/23 09:43:05;;;;;;;0.43;0.32;;;13.80;99.90;;;;;;5011005;28;20433;-71
2022/04/23 09:45:32;;;;;;;0.50;0.50;;;13.80;99.90;;;;;;5008688;28;20420;-71
2022/04/23 09:48:04;;;;;;;0.50;0.50;;;14.00;99.90;;;;;;4996598;28;20388;-71
2022/04/23 09:50:37;;;;;;;1.00;1.00;;;14.00;99.90;;;;;;5011218;28;20401;-71
2022/04/23 09:53:13;;;;;;;0.40;0.30;;;13.50;99.90;;;;;;4995499;28;20721;-73
2022/04/23 09:55:39;;;;;;;1.80;1.20;;;13.90;99.90;;;;;;5007975;28;20490;-71
2022/04/23 09:58:09;;;;;;;2.20;1.20;;;13.90;99.90;;;;;;4996769;28;20888;-71
2022/04/23 10:00:43;;;;;;;0.40;0.20;;;14.10;99.90;;;;;;5011420;28;20404;-70
2022/04/23 10:03:10;;;;;;;0.80;0.70;;;14.30;99.90;;;;;;5010135;28;20446;-71
2022/04/23 10:05:45;;;;;;;1.10;1.00;;;14.20;99.90;;;;;;5024137;28;20500;-70
2022/04/23 10:08:14;;;;;;;0.90;0.90;;;14.20;99.90;;;;;;5009359;28;20733;-71
2022/04/23 10:10:52;;;;;;;1.90;1.40;;;14.40;99.90;;;;;;5005063;28;20408;-71
2022/04/23 10:13:20;;;;;;;0.40;0.20;;;14.30;99.90;;;;;;5006931;28;20401;-71
2022/04/23 10:15:47;;;;;;;0.65;0.65;;;14.40;99.90;;;;;;4998964;28;20404;-70
2022/04/23 10:18:14;;;;;;;0.90;0.90;;;14.50;99.90;;;;;;5002547;28;20401;-71
2022/04/23 10:20:40;;;;;;;0.50;0.40;;;14.60;99.90;;;;;;4999591;28;20399;-71
2022/04/23 10:23:25;;;;;;;1.30;1.07;;;14.70;99.90;;;;;;5005311;28;20427;-71
2022/04/23 10:26:10;;;;;;;0.40;0.30;;;14.80;99.90;;;;;;5005371;28;20405;-71
2022/04/23 10:28:44;;;;;;;1.30;0.90;;;15.00;99.90;;;;;;5011218;28;20392;-71
2022/04/23 10:31:17;;;;;;;3.80;0.85;;;15.40;99.90;;;;;;5010382;28;20410;-72
2022/04/23 10:33:54;;;;;;;0.40;0.30;;;15.40;99.90;;;;;;4998639;28;20413;-71
2022/04/23 10:36:22;;;;;;;0.40;0.22;;;15.30;99.90;;;;;;5007615;28;20405;-71
2022/04/23 10:38:52;;;;;;;0.70;0.70;;;15.10;99.90;;;;;;5008379;28;20453;-70
2022/04/23 10:41:24;;;;;;;0.70;0.70;;;15.30;99.90;;;;;;4991935;28;20382;-70
2022/04/23 10:44:00;;;;;;;0.47;0.47;;;15.20;99.90;;;;;;5006994;28;20424;-71
2022/04/23 10:46:40;;;;;;;1.10;1.10;;;15.40;99.90;;;;;;5002846;28;21325;-71
2022/04/23 10:49:25;;;;;;;1.30;1.20;;;15.30;99.90;;;;;;5008786;28;20443;-70
2022/04/23 10:51:52;;;;;;;1.30;0.90;;;15.00;99.90;;;;;;5010146;28;20384;-70
2022/04/23 10:54:21;;;;;;;7.78;1.48;;;15.10;99.90;;;;;;5010216;28;20523;-71
2022/04/23 10:56:50;;;;;;;0.60;0.60;;;15.10;99.90;;;;;;5009568;28;20448;-71
2022/04/23 10:59:38;;;;;;;0.40;0.33;;;15.00;99.90;;;;;;5010449;28;20377;-72
2022/04/23 11:02:06;;;;;;;0.90;0.90;;;14.80;99.90;;;;;;5011579;28;20803;-71
2022/04/23 11:04:35;;;;;;;0.40;0.40;;;14.90;99.90;;;;;;5010598;28;20492;-72
2022/04/23 11:12:36;;;;;;;0.80;0.80;;;14.80;99.90;;;;;;5006813;28;20391;-71
2022/04/23 11:15:13;;;;;;;0.75;0.65;;;14.80;99.90;;;;;;5016485;28;20412;-71
2022/04/23 11:17:38;;;;;;;0.50;0.47;;;14.80;99.90;;;;;;5015845;28;20451;-71
2022/04/23 11:20:05;;;;;;;0.70;0.70;;;14.70;99.90;;;;;;5016750;28;20881;-71
2022/04/23 11:22:32;;;;;;;0.95;0.95;;;14.70;99.90;;;;;;5016725;28;20499;-71
2022/04/23 11:24:59;;;;;;;2.50;1.50;;;14.70;99.90;;;;;;5009863;28;20416;-71
2022/04/23 11:27:26;;;;;;;0.40;0.22;;;14.70;99.90;;;;;;5016152;28;20392;-71
2022/04/23 11:29:52;;;;;;;0.50;0.50;;;14.90;99.90;;;;;;5016027;28;20435;-71
2022/04/23 11:32:32;;;;;;;0.80;0.80;;;14.60;99.90;;;;;;5016935;28;20443;-71
2022/04/23 11:35:00;;;;;;;0.70;0.70;;;14.70;99.90;;;;;;5014849;28;20817;-70
2022/04/23 11:37:43;;;;;;;0.40;0.30;;;14.50;99.90;;;;;;5016892;28;20433;-70
2022/04/23 11:40:16;;;;;;;0.50;0.50;;;14.40;99.90;;;;;;5016635;28;20424;-71
2022/04/23 11:42:44;;;;;;;1.30;1.30;;;14.40;99.90;;;;;;5017122;28;20393;-71
2022/04/23 11:45:13;;;;;;;0.40;0.30;;;14.40;99.90;;;;;;5016616;28;20462;-70
2022/04/23 11:47:39;;;;;;;0.40;0.30;;;14.50;99.90;;;;;;5017002;28;20434;-71
2022/04/23 11:50:22;;;;;;;2.90;1.52;;;14.60;99.90;;;;;;4991714;28;20436;-71
2022/04/23 11:52:59;;;;;;;2.38;1.58;;;14.40;99.90;;;;;;5016431;28;20396;-72
2022/04/23 11:55:26;;;;;;;0.40;0.30;;;14.40;99.90;;;;;;5020212;28;20398;-71
2022/04/23 11:57:56;;;;;;;0.60;0.60;;;14.50;99.90;;;;;;5027934;28;20401;-71
2022/04/23 12:00:24;;;;;;;1.13;1.13;;;14.40;99.90;;;;;;5016207;28;20397;-71
2022/04/23 12:02:50;;;;;;;0.47;0.47;;;14.40;99.90;;;;;;5016794;28;20391;-71
2022/04/23 12:05:30;;;;;;;3.30;2.10;;;14.50;99.90;;;;;;4999696;28;20427;-71
2022/04/23 12:07:57;;;;;;;0.88;0.88;;;14.50;99.90;;;;;;5015935;28;20396;-71
2022/04/23 12:10:27;;;;;;;0.50;0.50;;;14.40;99.90;;;;;;5015706;28;20472;-71
2022/04/23 12:12:54;;;;;;;0.40;0.20;;;14.40;99.90;;;;;;5009383;28;20381;-71
2022/04/23 12:15:21;;;;;;;1.00;0.80;;;14.40;99.90;;;;;;5010722;28;20389;-71
2022/04/23 12:17:53;;;;;;;0.50;0.40;;;14.60;99.90;;;;;;5013055;28;20402;-70
2022/04/23 12:20:21;;;;;;;0.50;0.50;;;14.70;99.90;;;;;;5008931;28;20447;-71
2022/04/23 12:23:02;;;;;;;0.40;0.30;;;14.80;99.90;;;;;;5013137;28;20404;-71
2022/04/23 12:25:31;;;;;;;0.60;0.60;;;14.70;99.90;;;;;;5012384;28;20421;-70
2022/04/23 12:28:02;;;;;;;0.40;0.30;;;14.70;99.90;;;;;;5013218;28;20404;-70
2022/04/23 12:41:55;;;;;;;1.20;1.20;;;15.20;99.90;;;;;;5011585;28;20384;-71
2022/04/23 12:44:22;;;;;;;1.00;0.50;;;15.20;99.90;;;;;;5012333;28;20413;-71
2022/04/23 12:47:26;;;;;;;0.60;0.60;;;15.10;99.90;;;;;;5012735;28;20381;-69
2022/04/23 12:49:56;;;;;;;3.50;1.30;;;15.10;99.90;;;;;;4998257;28;20393;-70
2022/04/23 12:52:43;;;;;;;0.88;0.88;;;15.10;99.90;;;;;;5011114;28;20860;-72
2022/04/23 12:55:25;;;;;;;0.40;0.25;;;15.10;99.90;;;;;;5005988;28;20413;-70
2022/04/23 12:58:03;;;;;;;0.60;0.60;;;14.70;99.90;;;;;;5012537;28;20397;-70
2022/04/23 13:00:31;;;;;;;0.40;0.30;;;15.00;99.90;;;;;;5007374;28;20399;-71
2022/04/23 13:03:00;;;;;;;0.43;0.43;;;15.30;99.90;;;;;;5008745;28;20873;-70
2022/04/23 13:05:27;;;;;;;0.40;0.30;;;15.30;99.90;;;;;;5008372;28;20414;-71
2022/04/23 13:10:38;;;;;;;1.60;1.50;;;15.00;99.90;;;;;;4993007;28;20400;-71
2022/04/23 13:13:07;;;;;;;0.40;0.25;;;15.20;99.90;;;;;;5011421;28;20395;-70
2022/04/23 13:15:35;;;;;;;0.40;0.30;;;15.40;99.90;;;;;;5006268;28;20401;-71
2022/04/23 13:18:02;;;;;;;0.40;0.30;;;15.60;99.90;;;;;;5027004;28;20968;-69
2022/04/23 13:20:28;;;;;;;1.60;1.00;;;15.60;99.40;;;;;;5012152;28;20501;-70
2022/04/23 13:22:55;;;;;;;1.40;1.30;;;15.50;99.90;;;;;;5011556;28;20388;-70
2022/04/23 13:25:21;;;;;;;0.40;0.40;;;15.50;99.90;;;;;;5012376;28;20493;-70
2022/04/23 13:27:47;;;;;;;0.40;0.30;;;15.80;99.90;;;;;;5010264;28;20388;-71
2022/04/23 13:30:14;;;;;;;0.40;0.40;;;15.90;98.50;;;;;;5012434;28;20381;-70
2022/04/23 13:32:42;;;;;;;2.25;2.15;;;16.30;97.10;;;;;;5012154;28;20388;-71